createdAt,value
2018-04-29T00:02:10.686Z,7.93
2018-04-29T00:04:38.142Z,10.27
2018-04-29T00:07:05.622Z,8.47
2018-04-29T00:09:33.093Z,10.27
2018-04-29T00:12:00.574Z,8.20
2018-04-29T00:14:28.054Z,11.70
2018-04-29T00:16:55.534Z,7.47
2018-04-29T00:19:22.998Z,8.70
2018-04-29T00:21:50.492Z,8.90
2018-04-29T00:24:17.958Z,8.67
2018-04-29T00:26:45.454Z,10.00
2018-04-29T00:31:35.993Z,12.10
2018-04-29T00:34:03.451Z,10.10
2018-04-29T00:36:30.942Z,11.30
2018-04-29T00:38:58.402Z,7.77
2018-04-29T00:41:25.886Z,9.83
2018-04-29T00:43:53.355Z,9.63
2018-04-29T00:46:20.838Z,9.07
2018-04-29T00:48:48.380Z,9.47
2018-04-29T00:51:15.797Z,9.23
2018-04-29T00:53:43.334Z,12.20
2018-04-29T00:56:10.837Z,12.10
2018-04-29T00:58:38.304Z,12.67
2018-04-29T01:01:05.800Z,11.97
2018-04-29T01:03:33.270Z,9.23
2018-04-29T01:06:00.764Z,11.50
2018-04-29T01:08:28.226Z,11.83
2018-04-29T01:10:55.702Z,9.60
2018-04-29T01:13:23.183Z,11.33
2018-04-29T01:15:50.670Z,11.27
2018-04-29T01:18:18.130Z,15.83
2018-04-29T01:20:45.619Z,13.03
2018-04-29T01:23:13.136Z,10.50
2018-04-29T01:25:40.567Z,10.47
2018-04-29T01:28:08.053Z,13.23
2018-04-29T01:30:35.522Z,15.20
2018-04-29T01:33:03.027Z,17.13
2018-04-29T01:35:30.486Z,12.47
2018-04-29T01:37:57.979Z,9.00
2018-04-29T01:40:25.437Z,14.20
2018-04-29T01:42:52.917Z,10.43
2018-04-29T01:45:20.390Z,11.00
2018-04-29T01:47:47.874Z,17.93
2018-04-29T01:50:15.338Z,13.17
2018-04-29T01:52:42.825Z,12.57
2018-04-29T01:55:10.394Z,10.83
2018-04-29T01:57:37.886Z,15.10
2018-04-29T02:00:05.349Z,11.23
2018-04-29T02:02:32.829Z,11.73
2018-04-29T02:05:00.295Z,16.17
2018-04-29T02:07:27.773Z,13.80
2018-04-29T02:09:55.240Z,12.17
2018-04-29T02:12:22.725Z,11.90
2018-04-29T02:14:50.191Z,15.77
2018-04-29T02:17:17.674Z,13.57
2018-04-29T02:19:45.141Z,10.77
2018-04-29T02:22:12.629Z,16.97
2018-04-29T02:24:40.097Z,12.73
2018-04-29T02:27:07.603Z,17.40
2018-04-29T02:29:35.109Z,13.77
2018-04-29T02:32:02.595Z,15.87
2018-04-29T02:34:30.054Z,16.87
2018-04-29T02:36:57.554Z,15.23
2018-04-29T02:39:25.038Z,12.50
2018-04-29T02:41:52.526Z,13.63
2018-04-29T02:44:20.010Z,14.23
2018-04-29T02:46:47.484Z,16.07
2018-04-29T02:49:14.971Z,14.40
2018-04-29T02:51:42.451Z,16.23
2018-04-29T02:54:09.977Z,13.97
2018-04-29T02:56:37.448Z,18.67
2018-04-29T02:59:04.933Z,14.90
2018-04-29T03:01:32.399Z,16.23
2018-04-29T03:03:59.888Z,19.00
2018-04-29T03:06:27.392Z,14.67
2018-04-29T03:08:54.896Z,19.17
2018-04-29T03:11:22.367Z,16.63
2018-04-29T03:13:49.858Z,13.93
2018-04-29T03:16:17.335Z,16.07
2018-04-29T03:18:45.750Z,17.00
2018-04-29T03:21:13.222Z,14.10
2018-04-29T03:23:40.718Z,15.10
2018-04-29T03:26:08.206Z,16.80
2018-04-29T03:28:35.817Z,16.57
2018-04-29T03:31:03.289Z,15.80
2018-04-29T03:33:30.784Z,20.13
2018-04-29T03:35:58.241Z,18.90
2018-04-29T03:38:25.726Z,17.83
2018-04-29T03:40:53.225Z,14.43
2018-04-29T03:43:20.706Z,21.17
2018-04-29T03:45:48.192Z,15.17
2018-04-29T03:48:15.688Z,16.60
2018-04-29T03:50:43.158Z,21.40
2018-04-29T03:53:11.113Z,22.43
2018-04-29T03:55:38.581Z,16.80
2018-04-29T03:58:17.934Z,17.27
2018-04-29T04:00:57.228Z,15.03
2018-04-29T04:03:36.362Z,17.83
2018-04-29T04:06:03.841Z,14.77
2018-04-29T04:08:31.325Z,16.27
2018-04-29T04:10:58.793Z,15.23
2018-04-29T04:13:26.279Z,16.20
2018-04-29T04:15:53.750Z,16.20
2018-04-29T04:18:21.246Z,18.50
2018-04-29T04:20:48.722Z,19.30
2018-04-29T04:23:16.215Z,15.67
2018-04-29T04:25:43.673Z,20.27
2018-04-29T04:28:11.137Z,16.17
2018-04-29T04:30:38.626Z,15.77
2018-04-29T04:33:06.115Z,18.20
2018-04-29T04:35:33.608Z,16.57
2018-04-29T04:38:01.074Z,18.37
2018-04-29T04:40:28.582Z,16.60
2018-04-29T04:42:56.046Z,16.70
2018-04-29T04:45:23.534Z,16.97
2018-04-29T04:47:51.001Z,16.50
2018-04-29T04:50:18.490Z,16.80
2018-04-29T04:52:45.978Z,16.23
2018-04-29T04:55:13.485Z,16.70
2018-04-29T04:57:40.959Z,17.43
2018-04-29T05:00:08.450Z,17.63
2018-04-29T05:02:35.914Z,21.70
2018-04-29T05:05:03.410Z,17.53
2018-04-29T05:07:30.870Z,17.93
2018-04-29T05:09:58.358Z,16.23
2018-04-29T05:12:25.842Z,19.30
2018-04-29T05:14:53.336Z,18.90
2018-04-29T05:17:20.807Z,18.17
2018-04-29T05:19:48.299Z,18.60
2018-04-29T05:22:15.863Z,19.40
2018-04-29T05:24:43.280Z,15.37
2018-04-29T05:27:10.781Z,18.17
2018-04-29T05:29:38.266Z,19.03
2018-04-29T05:32:05.729Z,17.33
2018-04-29T05:34:33.217Z,20.50
2018-04-29T05:37:00.682Z,17.13
2018-04-29T05:39:28.174Z,19.00
2018-04-29T05:41:55.654Z,22.27
2018-04-29T05:44:23.154Z,18.67
2018-04-29T05:46:50.635Z,16.93
2018-04-29T05:49:18.138Z,20.57
2018-04-29T05:51:45.633Z,16.77
2018-04-29T05:54:13.097Z,16.83
2018-04-29T05:56:40.611Z,20.73
2018-04-29T05:59:08.078Z,16.87
2018-04-29T06:01:35.564Z,16.60
2018-04-29T06:04:03.035Z,18.30
2018-04-29T06:06:30.626Z,15.57
2018-04-29T06:08:58.022Z,14.93
2018-04-29T06:11:25.506Z,20.17
2018-04-29T06:13:52.978Z,17.97
2018-04-29T06:16:20.474Z,14.27
2018-04-29T06:18:47.951Z,14.27
2018-04-29T06:21:15.439Z,13.70
2018-04-29T06:23:42.918Z,15.40
2018-04-29T06:26:10.469Z,14.73
2018-04-29T06:28:37.951Z,13.77
2018-04-29T06:31:05.447Z,13.33
2018-04-29T06:33:32.914Z,12.50
2018-04-29T06:36:00.400Z,13.73
2018-04-29T06:38:27.868Z,14.80
2018-04-29T06:40:55.379Z,15.73
2018-04-29T06:43:22.926Z,13.20
2018-04-29T06:45:52.717Z,13.57
2018-04-29T06:48:20.178Z,14.23
2018-04-29T06:50:47.694Z,13.03
2018-04-29T06:53:15.181Z,12.63
2018-04-29T06:55:42.699Z,15.13
2018-04-29T06:58:10.183Z,13.67
2018-04-29T07:00:37.737Z,13.57
2018-04-29T07:03:05.266Z,14.90
2018-04-29T07:05:34.766Z,13.43
2018-04-29T07:08:02.267Z,14.53
2018-04-29T07:10:29.768Z,13.60
2018-04-29T07:12:57.239Z,13.23
2018-04-29T07:15:24.731Z,13.43
2018-04-29T07:17:52.212Z,13.77
2018-04-29T07:20:19.683Z,15.43
2018-04-29T07:22:47.196Z,14.60
2018-04-29T07:25:14.658Z,14.23
2018-04-29T07:27:42.162Z,9.67
2018-04-29T07:30:09.628Z,11.53
2018-04-29T07:32:37.118Z,12.00
2018-04-29T07:35:04.619Z,12.43
2018-04-29T07:37:32.102Z,10.83
2018-04-29T07:39:59.713Z,15.07
2018-04-29T07:42:27.247Z,19.60
2018-04-29T07:44:54.717Z,11.97
2018-04-29T07:47:22.206Z,11.50
2018-04-29T07:49:49.679Z,9.93
2018-04-29T07:52:17.231Z,9.93
2018-04-29T07:54:44.691Z,12.10
2018-04-29T07:57:13.281Z,8.57
2018-04-29T07:59:40.751Z,8.47
2018-04-29T08:02:08.294Z,11.53
2018-04-29T08:04:35.754Z,10.90
2018-04-29T08:07:03.250Z,13.40
2018-04-29T08:09:31.708Z,10.63
2018-04-29T08:11:59.196Z,8.70
2018-04-29T08:14:26.726Z,6.70
2018-04-29T08:16:55.258Z,9.17
2018-04-29T08:19:22.830Z,11.77
2018-04-29T08:21:50.662Z,10.17
2018-04-29T08:24:22.078Z,8.17
2018-04-29T08:26:49.954Z,8.43
2018-04-29T08:29:17.462Z,6.90
2018-04-29T08:31:44.975Z,8.90
2018-04-29T08:34:12.455Z,9.40
2018-04-29T08:36:39.954Z,6.77
2018-04-29T08:39:09.755Z,9.33
2018-04-29T08:41:37.257Z,11.00
2018-04-29T08:44:04.752Z,7.77
2018-04-29T08:46:32.233Z,9.90
2018-04-29T08:48:59.706Z,9.87
2018-04-29T08:51:27.193Z,8.50
2018-04-29T08:53:54.986Z,8.57
2018-04-29T08:56:22.501Z,10.23
2018-04-29T08:58:49.988Z,10.70
2018-04-29T09:01:17.733Z,9.93
2018-04-29T09:03:45.557Z,9.83
2018-04-29T09:06:12.947Z,8.40
2018-04-29T09:08:41.626Z,9.67
2018-04-29T09:11:09.082Z,7.60
2018-04-29T09:13:36.578Z,8.73
2018-04-29T09:16:04.158Z,8.80
2018-04-29T09:18:31.680Z,10.57
2018-04-29T09:20:59.145Z,9.67
2018-04-29T09:23:26.646Z,8.20
2018-04-29T09:25:54.113Z,12.30
2018-04-29T09:28:22.089Z,10.37
2018-04-29T09:30:49.986Z,8.50
2018-04-29T09:33:17.498Z,12.07
2018-04-29T09:35:45.271Z,6.83
2018-04-29T09:38:12.781Z,9.87
2018-04-29T09:40:40.285Z,9.67
2018-04-29T09:43:07.805Z,11.43
2018-04-29T09:45:36.598Z,11.33
2018-04-29T09:48:04.110Z,8.60
2018-04-29T09:50:31.579Z,9.43
2018-04-29T09:52:59.071Z,6.87
2018-04-29T09:55:26.597Z,6.90
2018-04-29T09:57:54.115Z,8.60
2018-04-29T10:00:26.631Z,11.68
2018-04-29T10:02:54.147Z,6.35
2018-04-29T10:05:21.738Z,7.20
2018-04-29T10:07:49.266Z,7.22
2018-04-29T10:10:16.730Z,8.43
2018-04-29T10:12:44.237Z,7.87
2018-04-29T10:15:11.696Z,8.82
2018-04-29T10:17:39.181Z,8.13
2018-04-29T10:20:06.646Z,10.15
2018-04-29T10:22:34.125Z,8.23
2018-04-29T10:25:05.769Z,7.62
2018-04-29T10:27:38.972Z,7.45
2018-04-29T10:30:17.390Z,7.05
2018-04-29T10:32:45.064Z,9.38
2018-04-29T10:35:12.531Z,7.05
2018-04-29T10:37:40.017Z,7.95
2018-04-29T10:40:07.505Z,8.23
2018-04-29T10:42:34.990Z,6.25
2018-04-29T10:45:02.494Z,7.47
2018-04-29T10:47:30.014Z,8.30
2018-04-29T10:49:57.478Z,9.30
2018-04-29T10:52:25.032Z,8.88
2018-04-29T10:54:52.526Z,8.38
2018-04-29T10:57:19.997Z,7.57
2018-04-29T10:59:47.579Z,9.65
2018-04-29T11:02:15.045Z,9.88
2018-04-29T11:04:42.554Z,6.10
2018-04-29T11:07:10.014Z,9.10
2018-04-29T11:09:37.518Z,10.20
2018-04-29T11:12:05.026Z,6.60
2018-04-29T11:14:32.511Z,7.18
2018-04-29T11:17:00.103Z,7.47
2018-04-29T11:19:28.643Z,11.95
2018-04-29T11:21:56.115Z,7.40
2018-04-29T11:24:23.602Z,9.68
2018-04-29T11:26:51.070Z,8.60
2018-04-29T11:29:18.551Z,7.70
2018-04-29T11:31:46.026Z,11.50
2018-04-29T11:34:13.522Z,7.43
2018-04-29T11:36:40.992Z,8.77
2018-04-29T11:39:08.495Z,10.23
2018-04-29T11:41:36.052Z,7.37
2018-04-29T11:44:03.534Z,7.15
2018-04-29T11:46:31.008Z,8.52
2018-04-29T11:48:58.526Z,15.55
2018-04-29T11:51:26.291Z,11.07
2018-04-29T11:53:54.078Z,7.12
2018-04-29T11:56:26.252Z,7.70
2018-04-29T11:58:54.048Z,6.30
2018-04-29T12:01:21.525Z,8.85
2018-04-29T12:03:49.015Z,9.63
2018-04-29T12:06:16.539Z,8.27
2018-04-29T12:08:44.026Z,7.65
2018-04-29T12:11:11.498Z,8.18
2018-04-29T12:13:39.010Z,10.60
2018-04-29T12:16:06.543Z,7.15
2018-04-29T12:18:34.042Z,8.85
2018-04-29T12:21:01.675Z,7.87
2018-04-29T12:23:29.198Z,11.35
2018-04-29T12:25:56.773Z,7.47
2018-04-29T12:28:24.294Z,9.65
2018-04-29T12:30:51.800Z,8.40
2018-04-29T12:33:19.261Z,8.07
2018-04-29T12:35:47.120Z,9.82
2018-04-29T12:38:14.590Z,7.00
2018-04-29T12:40:42.072Z,6.10
2018-04-29T12:43:09.530Z,7.32
2018-04-29T12:45:37.059Z,10.15
2018-04-29T12:48:04.523Z,11.50
2018-04-29T12:50:32.006Z,8.05
2018-04-29T12:53:01.226Z,8.13
2018-04-29T12:55:28.799Z,9.57
2018-04-29T12:57:56.333Z,11.10
2018-04-29T13:00:23.908Z,9.55
2018-04-29T13:02:51.312Z,7.45
2018-04-29T13:05:18.799Z,9.40
2018-04-29T13:07:46.275Z,7.12
2018-04-29T13:10:13.773Z,9.80
2018-04-29T13:12:41.238Z,6.75
2018-04-29T13:15:08.737Z,6.90
2018-04-29T13:17:36.199Z,8.25
2018-04-29T13:20:03.681Z,7.37
2018-04-29T13:22:31.142Z,11.32
2018-04-29T13:24:58.622Z,7.87
2018-04-29T13:27:26.098Z,6.70
2018-04-29T13:29:53.625Z,7.53
2018-04-29T13:32:21.086Z,9.85
2018-04-29T13:34:48.570Z,8.15
2018-04-29T13:37:16.036Z,9.40
2018-04-29T13:39:43.530Z,7.68
2018-04-29T13:42:11.052Z,9.65
2018-04-29T13:44:38.602Z,9.43
2018-04-29T13:47:06.080Z,8.57
2018-04-29T13:49:33.547Z,8.27
2018-04-29T13:52:01.034Z,11.48
2018-04-29T13:54:28.502Z,7.57
2018-04-29T13:56:56.092Z,8.27
2018-04-29T13:59:23.578Z,9.10
2018-04-29T14:01:51.122Z,9.18
2018-04-29T14:04:18.558Z,7.65
2018-04-29T14:06:46.071Z,7.03
2018-04-29T14:09:13.525Z,6.85
2018-04-29T14:11:41.034Z,6.00
2018-04-29T14:14:08.502Z,9.93
2018-04-29T14:16:35.986Z,7.40
2018-04-29T14:19:03.521Z,11.27
2018-04-29T14:21:31.007Z,7.05
2018-04-29T14:23:58.463Z,8.88
2018-04-29T14:26:25.949Z,10.35
2018-04-29T14:28:53.411Z,12.50
2018-04-29T14:31:20.907Z,7.37
2018-04-29T14:33:48.402Z,6.87
2018-04-29T14:36:15.891Z,6.72
2018-04-29T14:38:43.428Z,7.80
2018-04-29T14:41:10.890Z,7.68
2018-04-29T14:43:38.364Z,7.40
2018-04-29T14:46:05.860Z,9.13
2018-04-29T14:48:33.347Z,11.60
2018-04-29T14:51:00.842Z,11.12
2018-04-29T14:53:28.307Z,10.45
2018-04-29T14:55:55.865Z,12.75
2018-04-29T14:58:23.347Z,10.10
2018-04-29T15:00:50.839Z,15.85
2018-04-29T15:03:18.318Z,11.80
2018-04-29T15:05:45.816Z,11.27
2018-04-29T15:08:13.322Z,13.75
2018-04-29T15:10:40.879Z,13.30
2018-04-29T15:13:08.361Z,12.13
2018-04-29T15:15:35.848Z,12.93
2018-04-29T15:18:03.380Z,13.43
2018-04-29T15:20:30.866Z,13.85
2018-04-29T15:22:58.353Z,12.43
2018-04-29T15:25:25.845Z,13.35
2018-04-29T15:27:53.499Z,12.65
2018-04-29T15:30:20.910Z,12.75
2018-04-29T15:32:48.394Z,11.40
2018-04-29T15:35:15.858Z,11.10
2018-04-29T15:37:43.362Z,14.73
2018-04-29T15:40:10.829Z,14.68
2018-04-29T15:42:38.323Z,12.95
2018-04-29T15:45:05.807Z,12.27
2018-04-29T15:47:33.298Z,14.65
2018-04-29T15:50:00.787Z,12.90
2018-04-29T15:52:28.294Z,14.50
2018-04-29T15:54:55.794Z,12.55
2018-04-29T15:57:23.298Z,15.90
2018-04-29T15:59:50.770Z,16.58
2018-04-29T16:02:18.270Z,18.77
2018-04-29T16:04:45.739Z,19.65
2018-04-29T16:07:13.268Z,16.62
2018-04-29T16:09:40.828Z,16.40
2018-04-29T16:12:08.366Z,16.45
2018-04-29T16:14:35.837Z,17.83
2018-04-29T16:17:03.337Z,17.45
2018-04-29T16:19:30.818Z,16.77
2018-04-29T16:21:58.306Z,17.50
2018-04-29T16:24:25.782Z,15.52
2018-04-29T16:26:53.286Z,15.25
2018-04-29T16:29:20.754Z,18.40
2018-04-29T16:31:48.247Z,16.00
2018-04-29T16:34:15.730Z,18.15
2018-04-29T16:36:43.241Z,17.52
2018-04-29T16:39:10.751Z,16.58
2018-04-29T16:41:38.307Z,16.67
2018-04-29T16:44:05.786Z,15.43
2018-04-29T16:46:33.290Z,18.10
2018-04-29T16:49:00.767Z,19.52
2018-04-29T16:51:28.261Z,21.00
2018-04-29T16:53:55.785Z,15.98
2018-04-29T16:56:23.254Z,14.40
2018-04-29T16:58:50.759Z,14.32
2018-04-29T17:01:18.256Z,15.88
2018-04-29T17:03:45.750Z,15.90
2018-04-29T17:06:13.222Z,16.60
2018-04-29T17:08:40.729Z,14.32
2018-04-29T17:11:08.194Z,15.45
2018-04-29T17:13:35.687Z,15.40
2018-04-29T17:16:03.175Z,15.43
2018-04-29T17:18:30.668Z,15.30
2018-04-29T17:20:58.153Z,15.93
2018-04-29T17:23:25.654Z,13.50
2018-04-29T17:25:53.138Z,14.95
2018-04-29T17:28:20.630Z,19.35
2018-04-29T17:30:49.034Z,16.42
2018-04-29T17:33:16.527Z,21.35
2018-04-29T17:35:44.014Z,25.60
2018-04-29T17:38:11.577Z,30.92
2018-04-29T17:40:39.018Z,25.17
2018-04-29T17:43:06.531Z,26.00
2018-04-29T17:45:34.002Z,21.37
2018-04-29T17:48:02.493Z,19.23
2018-04-29T17:50:29.974Z,16.67
2018-04-29T17:52:57.489Z,16.80
2018-04-29T17:55:24.981Z,15.02
2018-04-29T17:57:52.483Z,14.15
2018-04-29T18:00:19.958Z,16.17
2018-04-29T18:02:47.464Z,12.68
2018-04-29T18:05:14.933Z,15.50
2018-04-29T18:07:42.494Z,16.42
2018-04-29T18:10:09.970Z,18.27
2018-04-29T18:12:37.470Z,16.00
2018-04-29T18:15:04.955Z,16.15
2018-04-29T18:17:32.441Z,16.75
2018-04-29T18:19:59.918Z,32.53
2018-04-29T18:22:27.394Z,29.93
2018-04-29T18:24:54.894Z,25.70
2018-04-29T18:27:22.375Z,26.07
2018-04-29T18:29:49.866Z,23.45
2018-04-29T18:32:17.332Z,25.33
2018-04-29T18:34:44.854Z,27.27
2018-04-29T18:37:12.396Z,23.03
2018-04-29T18:39:39.929Z,19.90
2018-04-29T18:42:07.404Z,17.30
2018-04-29T18:44:34.916Z,17.70
2018-04-29T18:47:02.396Z,17.70
2018-04-29T18:49:29.886Z,19.43
2018-04-29T18:51:57.447Z,18.30
2018-04-29T18:54:24.978Z,20.40
2018-04-29T18:56:52.446Z,29.53
2018-04-29T18:59:19.943Z,18.63
2018-04-29T19:01:47.441Z,23.73
2018-04-29T19:04:14.953Z,21.97
2018-04-29T19:06:42.427Z,19.07
2018-04-29T19:09:09.938Z,15.03
2018-04-29T19:11:37.428Z,16.00
2018-04-29T19:14:05.000Z,18.67
2018-04-29T19:16:32.409Z,21.90
2018-04-29T19:18:59.904Z,16.00
2018-04-29T19:21:27.637Z,17.83
2018-04-29T19:23:55.288Z,18.10
2018-04-29T19:26:22.742Z,19.00
2018-04-29T19:28:50.227Z,25.63
2018-04-29T19:31:17.714Z,21.53
2018-04-29T19:33:45.213Z,23.47
2018-04-29T19:36:12.698Z,18.87
2018-04-29T19:38:40.243Z,17.93
2018-04-29T19:41:07.730Z,18.70
2018-04-29T19:43:35.225Z,21.03
2018-04-29T19:46:02.769Z,15.60
2018-04-29T19:48:30.268Z,15.17
2018-04-29T19:50:57.766Z,16.95
2018-04-29T19:53:25.282Z,17.17
2018-04-29T19:55:52.762Z,14.13
2018-04-29T19:58:20.234Z,14.93
2018-04-29T20:00:47.727Z,14.43
2018-04-29T20:03:15.209Z,17.10
2018-04-29T20:05:42.725Z,18.83
2018-04-29T20:08:10.230Z,15.50
2018-04-29T20:10:37.719Z,15.40
2018-04-29T20:13:05.198Z,14.07
2018-04-29T20:15:32.695Z,15.80
2018-04-29T20:18:00.162Z,15.33
2018-04-29T20:20:27.680Z,11.30
2018-04-29T20:22:55.167Z,10.70
2018-04-29T20:25:22.653Z,11.70
2018-04-29T20:27:50.154Z,11.40
2018-04-29T20:30:17.670Z,11.87
2018-04-29T20:32:48.890Z,8.93
2018-04-29T20:35:16.380Z,10.53
2018-04-29T20:37:43.839Z,10.83
2018-04-29T20:40:11.358Z,10.63
2018-04-29T20:42:38.940Z,11.10
2018-04-29T20:45:06.434Z,9.70
2018-04-29T20:47:33.905Z,7.63
2018-04-29T20:50:01.407Z,11.83
2018-04-29T20:52:28.866Z,9.60
2018-04-29T20:54:56.347Z,12.13
2018-04-29T20:57:23.817Z,10.60
2018-04-29T20:59:51.318Z,14.03
2018-04-29T21:02:18.793Z,11.17
2018-04-29T21:04:46.295Z,12.33
2018-04-29T21:07:13.786Z,11.10
2018-04-29T21:09:41.287Z,13.73
2018-04-29T21:12:08.770Z,12.07
2018-04-29T21:14:36.275Z,10.23
2018-04-29T21:17:03.743Z,10.43
2018-04-29T21:19:31.210Z,12.07
2018-04-29T21:21:58.694Z,13.10
2018-04-29T21:24:26.179Z,10.97
2018-04-29T21:26:53.677Z,10.90
2018-04-29T21:29:21.151Z,10.03
2018-04-29T21:31:48.642Z,10.73
2018-04-29T21:34:16.110Z,11.73
2018-04-29T21:36:43.595Z,5.87
2018-04-29T21:39:11.086Z,10.60
2018-04-29T21:41:39.562Z,8.77
2018-04-29T21:44:07.019Z,7.93
2018-04-29T21:46:34.959Z,5.60
2018-04-29T21:49:02.451Z,5.27
2018-04-29T21:51:29.942Z,2.73
2018-04-29T21:53:57.414Z,4.20
2018-04-29T21:56:24.902Z,9.63
2018-04-29T21:58:52.374Z,4.57
2018-04-29T22:01:19.870Z,3.90
2018-04-29T22:03:47.330Z,1.70
2018-04-29T22:06:14.810Z,3.10
2018-04-29T22:08:42.272Z,3.50
2018-04-29T22:11:09.767Z,2.07
2018-04-29T22:13:37.231Z,1.80
2018-04-29T22:16:04.713Z,1.90
2018-04-29T22:18:32.168Z,6.73
2018-04-29T22:20:59.648Z,3.90
2018-04-29T22:23:27.110Z,5.37
2018-04-29T22:25:54.592Z,2.30
2018-04-29T22:28:22.050Z,3.93
2018-04-29T22:30:49.530Z,3.10
2018-04-29T22:33:17.019Z,1.87
2018-04-29T22:35:44.530Z,3.80
2018-04-29T22:38:12.051Z,4.83
2018-04-29T22:40:39.531Z,3.77
2018-04-29T22:43:06.994Z,1.33
2018-04-29T22:45:34.473Z,1.93
2018-04-29T22:48:01.991Z,0.80
2018-04-29T22:50:29.471Z,0.80
2018-04-29T22:52:56.950Z,1.93
2018-04-29T22:55:24.414Z,1.93
2018-04-29T22:57:51.914Z,1.27
2018-04-29T23:00:19.375Z,2.83
2018-04-29T23:02:46.869Z,3.13
2018-04-29T23:05:14.328Z,1.03
2018-04-29T23:07:41.837Z,3.50
2018-04-29T23:10:09.298Z,5.10
2018-04-29T23:12:36.777Z,2.70
2018-04-29T23:15:04.260Z,1.43
2018-04-29T23:17:31.744Z,4.37
2018-04-29T23:19:59.209Z,1.13
2018-04-29T23:22:26.690Z,1.20
2018-04-29T23:24:54.151Z,3.53
2018-04-29T23:27:21.632Z,1.20
2018-04-29T23:29:49.103Z,0.87
2018-04-29T23:32:16.583Z,1.43
2018-04-29T23:34:44.042Z,1.00
2018-04-29T23:37:11.538Z,0.87
2018-04-29T23:39:38.994Z,1.43
2018-04-29T23:42:06.500Z,2.17
2018-04-29T23:44:33.971Z,1.70
2018-04-29T23:47:01.471Z,1.43
2018-04-29T23:49:28.926Z,1.27
2018-04-29T23:51:56.406Z,3.07
2018-04-29T23:54:24.825Z,1.07
2018-04-29T23:56:52.306Z,1.17
2018-04-29T23:59:19.758Z,3.07
